Time;durP1;ratioP1;P1;durP2;ratioP2;P2;SDS_P1;SDS_P2;PMS_P1;PMS_P2;Temp;Humidity;BMP_temperature;BMP_pressure;BME280_temperature;BME280_humidity;BME280_pressure;Samples;Min_cycle;Max_cycle;Signal;HPM_P1;HPM_P2
2023/05/24 00:00:32;;;;;;;41.10;8.52;;;9.10;99.90;;;;;;5063576;28;20033;-74
2023/05/24 00:02:57;;;;;;;53.33;9.07;;;9.00;99.90;;;;;;5062509;28;20027;-73
2023/05/24 00:05:23;;;;;;;43.42;7.78;;;9.00;99.90;;;;;;5063520;28;20036;-74
2023/05/24 00:07:51;;;;;;;50.67;9.02;;;9.00;99.90;;;;;;5063552;28;20043;-71
2023/05/24 00:10:17;;;;;;;46.05;8.65;;;9.00;99.90;;;;;;5062435;28;21375;-72
2023/05/24 00:12:42;;;;;;;44.30;7.47;;;9.00;99.90;;;;;;5063040;28;20017;-73
2023/05/24 00:15:08;;;;;;;51.63;8.65;;;9.10;99.90;;;;;;5062037;28;20029;-74
2023/05/24 00:17:41;;;;;;;46.70;8.73;;;9.10;99.90;;;;;;5063468;28;20045;-74
2023/05/24 00:20:13;;;;;;;53.88;8.82;;;9.10;99.90;;;;;;5063465;28;20033;-72
2023/05/24 00:22:42;;;;;;;48.60;8.45;;;9.10;99.90;;;;;;5062037;28;20036;-76
2023/05/24 00:25:08;;;;;;;41.10;8.27;;;9.10;99.90;;;;;;5062909;28;20122;-72
2023/05/24 00:27:36;;;;;;;34.80;8.13;;;9.10;99.90;;;;;;5061805;28;20115;-74
2023/05/24 00:30:02;;;;;;;47.13;8.00;;;9.10;99.90;;;;;;5063265;28;20643;-75
2023/05/24 00:32:27;;;;;;;34.63;8.70;;;9.10;99.90;;;;;;5061605;28;20029;-71
2023/05/24 00:34:53;;;;;;;44.55;7.70;;;9.10;99.90;;;;;;5061373;28;20104;-74
2023/05/24 00:37:18;;;;;;;45.30;8.52;;;9.10;99.90;;;;;;5061845;28;20032;-74
2023/05/24 00:39:44;;;;;;;45.00;8.18;;;9.10;99.90;;;;;;5061916;28;20071;-76
2023/05/24 00:42:09;;;;;;;39.83;7.75;;;9.10;99.90;;;;;;5062919;28;20056;-75
2023/05/24 00:44:35;;;;;;;41.70;9.05;;;9.10;99.90;;;;;;5060937;28;20025;-74
2023/05/24 00:47:00;;;;;;;43.80;8.70;;;9.10;99.90;;;;;;5063045;28;20116;-74
2023/05/24 00:49:26;;;;;;;43.83;8.38;;;9.10;99.90;;;;;;5062557;28;20029;-74
2023/05/24 00:51:58;;;;;;;47.65;9.00;;;9.10;99.90;;;;;;5061454;28;20013;-74
2023/05/24 00:54:25;;;;;;;36.25;8.02;;;9.10;99.90;;;;;;5062579;28;20020;-72
2023/05/24 00:56:52;;;;;;;39.10;7.78;;;9.10;99.90;;;;;;5062198;28;20041;-73
2023/05/24 00:59:18;;;;;;;49.78;8.27;;;9.10;99.90;;;;;;5061424;28;20057;-74
2023/05/24 01:01:45;;;;;;;43.72;8.63;;;9.10;99.90;;;;;;5062464;28;20500;-73
2023/05/24 01:04:12;;;;;;;42.38;8.15;;;9.10;99.90;;;;;;5058974;28;20051;-73
2023/05/24 01:06:48;;;;;;;44.75;8.85;;;9.00;99.90;;;;;;5060379;28;20029;-73
2023/05/24 01:09:33;;;;;;;44.45;9.15;;;9.10;99.90;;;;;;5061813;28;20024;-74
2023/05/24 01:12:23;;;;;;;45.88;9.00;;;9.10;99.90;;;;;;5060434;28;20075;-74
2023/05/24 01:15:14;;;;;;;46.72;8.55;;;9.10;99.90;;;;;;5062107;28;20056;-73
2023/05/24 01:17:50;;;;;;;50.15;8.88;;;9.10;99.90;;;;;;5061825;28;20104;-73
2023/05/24 01:20:17;;;;;;;46.15;9.02;;;9.10;99.90;;;;;;5062051;28;20174;-73
2023/05/24 01:22:52;;;;;;;49.03;9.63;;;9.10;99.90;;;;;;5060656;28;20036;-73
2023/05/24 01:25:45;;;;;;;51.55;8.90;;;9.10;99.90;;;;;;5061834;28;20146;-73
2023/05/24 01:28:11;;;;;;;36.92;7.95;;;9.10;99.90;;;;;;5060319;28;20021;-73
2023/05/24 01:30:40;;;;;;;36.72;8.02;;;9.10;99.90;;;;;;5060773;28;20025;-74
2023/05/24 01:33:05;;;;;;;49.33;9.02;;;9.10;99.90;;;;;;5061638;28;20037;-74
2023/05/24 01:35:33;;;;;;;38.35;7.50;;;9.10;99.90;;;;;;5062156;28;20033;-73
2023/05/24 01:37:58;;;;;;;38.15;8.65;;;9.10;99.90;;;;;;5060457;28;20040;-75
2023/05/24 01:40:24;;;;;;;45.13;8.23;;;9.10;99.90;;;;;;5061792;28;20055;-74
2023/05/24 01:43:11;;;;;;;43.35;8.00;;;9.10;99.90;;;;;;5061533;28;20070;-75
2023/05/24 01:45:45;;;;;;;42.63;8.10;;;9.10;99.90;;;;;;5059684;28;20052;-75
2023/05/24 01:48:40;;;;;;;40.30;8.40;;;9.10;99.90;;;;;;5061851;28;20051;-74
2023/05/24 01:51:10;;;;;;;46.03;7.70;;;9.10;99.90;;;;;;5039429;28;20050;-73
2023/05/24 01:53:43;;;;;;;34.67;7.72;;;9.10;99.90;;;;;;5058969;28;20025;-73
2023/05/24 01:56:10;;;;;;;40.37;8.27;;;9.10;99.90;;;;;;5061397;28;20048;-74
2023/05/24 01:58:42;;;;;;;44.95;8.15;;;9.10;99.90;;;;;;5061560;28;20078;-74
2023/05/24 02:01:09;;;;;;;45.38;8.68;;;9.00;99.90;;;;;;5060414;28;20029;-73
2023/05/24 02:03:37;;;;;;;42.20;8.27;;;9.00;99.90;;;;;;5060067;28;20032;-75
2023/05/24 02:06:03;;;;;;;47.88;9.02;;;9.00;99.90;;;;;;5061022;28;20048;-72
2023/05/24 02:08:28;;;;;;;41.17;7.85;;;9.00;99.90;;;;;;5056919;28;20057;-74
2023/05/24 02:10:54;;;;;;;41.20;7.95;;;9.00;99.90;;;;;;5062190;28;20051;-74
2023/05/24 02:13:20;;;;;;;40.53;8.00;;;9.00;99.90;;;;;;5060523;28;20025;-77
2023/05/24 02:15:46;;;;;;;42.83;8.07;;;9.10;99.90;;;;;;5061316;28;20025;-73
2023/05/24 02:18:12;;;;;;;40.83;8.45;;;9.10;99.90;;;;;;5060537;28;20017;-75
2023/05/24 02:20:39;;;;;;;37.90;7.65;;;9.10;99.90;;;;;;5061782;28;20021;-76
2023/05/24 02:23:05;;;;;;;38.40;7.82;;;9.10;99.90;;;;;;5061216;28;20549;-74
2023/05/24 02:25:32;;;;;;;40.88;7.40;;;9.10;99.90;;;;;;5061964;28;20048;-74
2023/05/24 02:27:58;;;;;;;31.42;7.63;;;9.10;99.90;;;;;;5062209;28;20025;-73
2023/05/24 02:30:24;;;;;;;39.72;8.00;;;9.10;99.90;;;;;;5061918;28;20040;-75
2023/05/24 02:32:50;;;;;;;41.97;8.25;;;9.10;99.90;;;;;;5062084;28;20025;-75
2023/05/24 02:35:15;;;;;;;38.70;7.70;;;9.10;99.90;;;;;;5061853;28;20029;-72
2023/05/24 02:37:41;;;;;;;41.95;8.10;;;9.00;99.90;;;;;;5062051;28;20052;-73
2023/05/24 02:40:07;;;;;;;44.63;8.63;;;9.00;99.90;;;;;;5061579;28;20036;-77
2023/05/24 02:42:36;;;;;;;37.90;7.47;;;9.00;99.90;;;;;;5060573;28;20533;-75
2023/05/24 02:45:02;;;;;;;40.30;7.80;;;9.00;99.90;;;;;;5061318;28;20032;-75
2023/05/24 02:47:27;;;;;;;42.20;7.97;;;9.00;99.90;;;;;;5060371;28;20056;-73
2023/05/24 02:49:54;;;;;;;41.70;8.98;;;9.00;99.90;;;;;;5060013;28;20057;-73
2023/05/24 02:52:22;;;;;;;38.42;7.60;;;9.00;99.90;;;;;;5060424;28;20039;-73
2023/05/24 02:54:48;;;;;;;41.10;8.00;;;9.00;99.90;;;;;;5059865;28;20503;-75
2023/05/24 02:57:15;;;;;;;44.03;8.07;;;9.00;99.90;;;;;;5060213;28;20110;-74
2023/05/24 02:59:41;;;;;;;40.15;7.57;;;8.90;99.90;;;;;;5060194;28;20056;-74
2023/05/24 03:02:06;;;;;;;46.40;7.40;;;8.90;99.90;;;;;;5059421;28;20868;-75
2023/05/24 03:04:32;;;;;;;33.08;7.72;;;8.90;99.90;;;;;;5061536;28;20090;-75
2023/05/24 03:06:57;;;;;;;41.88;7.97;;;8.90;99.90;;;;;;5060642;28;20025;-73
2023/05/24 03:09:23;;;;;;;43.13;8.65;;;8.90;99.90;;;;;;5061327;28;20119;-73
2023/05/24 03:11:48;;;;;;;37.92;8.05;;;8.90;99.90;;;;;;5060403;28;20048;-73
2023/05/24 03:14:16;;;;;;;33.17;7.50;;;8.90;99.90;;;;;;5060385;28;20021;-72
2023/05/24 03:16:41;;;;;;;32.90;7.55;;;8.90;99.90;;;;;;5059125;28;20032;-74
2023/05/24 03:19:07;;;;;;;40.08;8.02;;;8.90;99.90;;;;;;5059996;28;20532;-74
2023/05/24 03:21:32;;;;;;;48.30;8.25;;;8.90;99.90;;;;;;5060643;28;20024;-77
2023/05/24 03:23:58;;;;;;;42.65;8.23;;;9.00;99.90;;;;;;5059959;28;20025;-73
2023/05/24 03:26:25;;;;;;;34.35;7.70;;;8.90;99.90;;;;;;5061132;28;20032;-75
2023/05/24 03:28:53;;;;;;;39.42;7.78;;;8.90;99.90;;;;;;5060605;28;20932;-74
2023/05/24 03:31:19;;;;;;;41.90;8.13;;;8.90;99.90;;;;;;5058971;28;20040;-74
2023/05/24 03:33:45;;;;;;;44.33;8.32;;;8.90;99.90;;;;;;5059457;28;20033;-76
2023/05/24 03:36:10;;;;;;;42.53;8.30;;;8.90;99.90;;;;;;5059980;28;20037;-74
2023/05/24 03:38:36;;;;;;;37.50;7.72;;;8.90;99.90;;;;;;5060274;28;20044;-74
2023/05/24 03:41:02;;;;;;;40.03;8.10;;;8.90;99.90;;;;;;5061027;28;20032;-73
2023/05/24 03:43:34;;;;;;;43.70;8.15;;;8.90;99.90;;;;;;5059898;28;20025;-75
2023/05/24 03:46:00;;;;;;;42.78;8.48;;;8.90;99.90;;;;;;5057577;28;20061;-74
2023/05/24 03:48:25;;;;;;;50.53;8.43;;;8.90;99.90;;;;;;5059116;28;20059;-72
2023/05/24 03:50:51;;;;;;;46.88;8.40;;;8.90;99.90;;;;;;5058785;28;20583;-73
2023/05/24 03:53:16;;;;;;;37.00;8.07;;;8.90;99.90;;;;;;5060716;28;20029;-72
2023/05/24 03:55:42;;;;;;;36.97;7.18;;;9.00;99.90;;;;;;5060724;28;20021;-73
2023/05/24 03:58:08;;;;;;;45.83;7.47;;;9.00;99.90;;;;;;5058853;28;20061;-75
2023/05/24 04:00:33;;;;;;;37.72;7.72;;;9.00;99.90;;;;;;5058872;28;20028;-73
2023/05/24 04:03:00;;;;;;;49.83;9.23;;;9.00;99.90;;;;;;5059745;28;20021;-74
2023/05/24 04:05:28;;;;;;;35.13;7.05;;;9.00;99.90;;;;;;5059944;28;20085;-73
2023/05/24 04:07:54;;;;;;;37.92;7.38;;;9.00;99.90;;;;;;5060578;28;20041;-73
2023/05/24 04:10:19;;;;;;;37.00;8.05;;;9.10;99.90;;;;;;5060509;28;20040;-75
2023/05/24 04:12:45;;;;;;;37.13;7.38;;;9.10;99.90;;;;;;5060062;28;20572;-73
2023/05/24 04:15:14;;;;;;;43.38;7.88;;;9.10;99.90;;;;;;5060620;28;20032;-72
2023/05/24 04:17:41;;;;;;;35.30;7.45;;;9.10;99.90;;;;;;5058394;28;20043;-73
2023/05/24 04:20:08;;;;;;;33.35;7.15;;;9.10;99.90;;;;;;5059137;28;20040;-75
2023/05/24 04:22:35;;;;;;;36.28;7.32;;;9.20;99.90;;;;;;5060253;28;20122;-71
2023/05/24 04:25:04;;;;;;;37.55;6.78;;;9.20;99.90;;;;;;5059200;28;20075;-76
2023/05/24 04:27:30;;;;;;;41.15;7.40;;;9.20;99.90;;;;;;5059681;28;20104;-74
2023/05/24 04:29:56;;;;;;;41.20;7.53;;;9.20;99.90;;;;;;5060536;28;20059;-77
2023/05/24 04:32:22;;;;;;;41.60;7.45;;;9.20;99.90;;;;;;5058406;28;20029;-73
2023/05/24 04:34:49;;;;;;;36.40;7.30;;;9.20;99.90;;;;;;5059918;28;20138;-75
2023/05/24 04:37:16;;;;;;;40.40;8.02;;;9.30;99.90;;;;;;5059988;28;20056;-73
2023/05/24 04:39:43;;;;;;;40.78;7.22;;;9.30;99.90;;;;;;5059452;28;20044;-72
2023/05/24 04:42:09;;;;;;;42.13;7.85;;;9.30;99.90;;;;;;5062502;28;20032;-72
2023/05/24 04:44:34;;;;;;;38.25;6.82;;;9.30;99.90;;;;;;5063521;28;20017;-73
2023/05/24 04:47:02;;;;;;;28.52;7.13;;;9.30;99.90;;;;;;5063661;28;20025;-72
2023/05/24 04:49:28;;;;;;;38.67;6.80;;;9.30;99.90;;;;;;5063528;28;20082;-73
2023/05/24 04:51:53;;;;;;;36.30;7.90;;;9.30;99.90;;;;;;5060714;28;20070;-70
2023/05/24 04:54:19;;;;;;;36.38;7.05;;;9.30;99.90;;;;;;5063241;28;20033;-70
2023/05/24 04:56:45;;;;;;;47.60;7.97;;;9.30;99.90;;;;;;5063204;28;20123;-74
2023/05/24 04:59:10;;;;;;;38.47;7.45;;;9.30;99.90;;;;;;5061992;28;20021;-72
2023/05/24 05:01:36;;;;;;;36.55;7.50;;;9.30;99.90;;;;;;5063494;28;20025;-71
2023/05/24 05:04:06;;;;;;;36.35;7.82;;;9.30;99.90;;;;;;5063749;28;20052;-73
2023/05/24 05:06:37;;;;;;;44.70;7.85;;;9.30;99.90;;;;;;5061775;28;20637;-73
2023/05/24 05:09:11;;;;;;;44.22;8.35;;;9.30;99.90;;;;;;5063407;28;20085;-72
2023/05/24 05:11:38;;;;;;;43.63;7.25;;;9.30;99.90;;;;;;5061339;28;20340;-70
2023/05/24 05:14:05;;;;;;;34.45;7.45;;;9.30;99.90;;;;;;5059986;28;20033;-72
2023/05/24 05:16:31;;;;;;;52.00;8.52;;;9.30;99.90;;;;;;5059850;28;20055;-71
2023/05/24 05:18:57;;;;;;;46.55;8.45;;;9.20;99.90;;;;;;5060618;28;20017;-72
2023/05/24 05:21:22;;;;;;;34.95;7.63;;;9.20;99.90;;;;;;5060741;28;20063;-71
2023/05/24 05:23:48;;;;;;;51.20;8.48;;;9.20;99.90;;;;;;5060663;28;20025;-72
2023/05/24 05:26:14;;;;;;;46.60;8.18;;;9.20;99.90;;;;;;5062163;28;20032;-71
2023/05/24 05:28:39;;;;;;;46.75;7.45;;;9.20;99.90;;;;;;5062535;28;20021;-71
2023/05/24 05:31:05;;;;;;;37.95;7.68;;;9.20;99.90;;;;;;5062460;28;20021;-70
2023/05/24 05:33:34;;;;;;;41.55;7.93;;;9.20;99.90;;;;;;5061559;28;20056;-72
2023/05/24 05:36:00;;;;;;;43.35;7.65;;;9.20;99.90;;;;;;5062885;28;20108;-70
2023/05/24 05:38:25;;;;;;;36.80;8.15;;;9.20;99.90;;;;;;5063389;28;20918;-69
2023/05/24 05:40:51;;;;;;;34.08;7.47;;;9.20;99.90;;;;;;5061018;28;20017;-71
2023/05/24 05:43:16;;;;;;;45.05;8.90;;;9.20;99.90;;;;;;5062719;28;20029;-72
2023/05/24 05:45:42;;;;;;;37.60;8.25;;;9.20;99.90;;;;;;5062678;28;20028;-70
2023/05/24 05:48:07;;;;;;;40.55;8.18;;;9.20;99.90;;;;;;5061052;28;20106;-70
2023/05/24 05:50:33;;;;;;;37.22;7.80;;;9.20;99.90;;;;;;5062673;28;20056;-70
2023/05/24 05:52:59;;;;;;;51.00;9.13;;;9.30;99.90;;;;;;5060014;28;20136;-72
2023/05/24 05:55:25;;;;;;;46.47;8.75;;;9.30;99.90;;;;;;5061285;28;20030;-72
2023/05/24 05:57:50;;;;;;;42.50;8.75;;;9.30;99.90;;;;;;5062538;28;20063;-71
2023/05/24 06:00:16;;;;;;;41.38;7.97;;;9.30;99.90;;;;;;5062390;28;20040;-72
2023/05/24 06:02:42;;;;;;;45.92;8.52;;;9.30;99.90;;;;;;5062017;28;20111;-72
2023/05/24 06:05:08;;;;;;;47.05;9.23;;;9.30;99.90;;;;;;5060802;28;20041;-71
2023/05/24 06:07:36;;;;;;;51.90;8.68;;;9.30;99.90;;;;;;5062329;28;20084;-71
2023/05/24 06:10:02;;;;;;;42.90;8.63;;;9.30;99.90;;;;;;5061962;28;20045;-71
2023/05/24 06:12:28;;;;;;;37.90;8.85;;;9.30;99.90;;;;;;5060896;28;20556;-71
2023/05/24 06:14:56;;;;;;;39.88;8.88;;;9.30;99.90;;;;;;5061299;28;20021;-70
2023/05/24 06:17:23;;;;;;;47.55;8.73;;;9.40;99.90;;;;;;5060487;28;20048;-71
2023/05/24 06:19:50;;;;;;;46.67;9.98;;;9.40;99.90;;;;;;5056544;28;20025;-71
2023/05/24 06:22:16;;;;;;;42.35;9.00;;;9.40;99.90;;;;;;5059551;28;20032;-72
2023/05/24 06:24:42;;;;;;;41.15;9.07;;;9.40;99.90;;;;;;5060667;28;20482;-72
2023/05/24 06:27:08;;;;;;;40.20;8.80;;;9.40;99.90;;;;;;5061289;28;20119;-70
2023/05/24 06:29:33;;;;;;;41.22;9.43;;;9.40;99.90;;;;;;5061543;28;20068;-73
2023/05/24 06:31:59;;;;;;;48.55;9.80;;;9.40;99.90;;;;;;5060177;28;20029;-71
2023/05/24 06:34:24;;;;;;;40.97;9.63;;;9.40;99.90;;;;;;5060877;28;20017;-72
2023/05/24 06:36:51;;;;;;;48.53;8.70;;;9.50;99.90;;;;;;5061781;28;20529;-70
2023/05/24 06:39:17;;;;;;;40.08;8.85;;;9.50;99.90;;;;;;5060935;28;20017;-75
2023/05/24 06:41:43;;;;;;;47.50;8.98;;;9.50;99.90;;;;;;5061141;28;20052;-74
2023/05/24 06:44:09;;;;;;;48.33;9.15;;;9.60;99.90;;;;;;5060914;28;20040;-75
2023/05/24 06:46:35;;;;;;;49.83;11.15;;;9.60;99.90;;;;;;5056960;28;20044;-72
2023/05/24 06:49:02;;;;;;;45.60;9.77;;;9.60;99.90;;;;;;5057465;28;20025;-72
2023/05/24 06:51:27;;;;;;;43.22;9.15;;;9.70;99.90;;;;;;5059143;28;20043;-73
2023/05/24 06:53:53;;;;;;;44.28;8.45;;;9.70;99.90;;;;;;5059642;28;20115;-70
2023/05/24 06:56:18;;;;;;;43.30;8.25;;;9.70;99.90;;;;;;5057746;28;20055;-72
2023/05/24 06:58:44;;;;;;;56.60;9.85;;;9.70;99.90;;;;;;5057246;28;20039;-73
2023/05/24 07:01:11;;;;;;;45.38;8.82;;;9.80;99.90;;;;;;5058930;28;20029;-74
2023/05/24 07:03:37;;;;;;;42.38;8.75;;;9.80;99.90;;;;;;5058726;28;20033;-70
2023/05/24 07:06:02;;;;;;;47.40;8.63;;;9.80;99.90;;;;;;5056353;28;20036;-72
2023/05/24 07:08:28;;;;;;;46.65;9.32;;;9.80;99.90;;;;;;5059556;28;20045;-71
2023/05/24 07:10:54;;;;;;;41.15;9.23;;;9.90;99.90;;;;;;5061301;28;20029;-70
2023/05/24 07:13:20;;;;;;;50.83;9.73;;;9.90;99.90;;;;;;5058662;28;20025;-71
2023/05/24 07:15:46;;;;;;;51.25;9.52;;;9.90;99.90;;;;;;5061419;28;20047;-70
2023/05/24 07:18:12;;;;;;;39.63;9.45;;;10.00;99.90;;;;;;5060391;28;20055;-71
2023/05/24 07:20:38;;;;;;;41.10;9.07;;;10.00;99.90;;;;;;5057382;28;20050;-71
2023/05/24 07:23:05;;;;;;;42.70;9.40;;;10.10;99.90;;;;;;5061583;28;20103;-74
2023/05/24 07:25:31;;;;;;;54.30;9.18;;;10.10;99.90;;;;;;5060258;28;20044;-72
2023/05/24 07:27:57;;;;;;;47.22;10.25;;;10.10;99.90;;;;;;5060573;28;20021;-71
2023/05/24 07:30:22;;;;;;;45.35;9.40;;;10.20;99.90;;;;;;5058371;28;20025;-72
2023/05/24 07:32:49;;;;;;;48.97;9.15;;;10.20;99.90;;;;;;5060103;28;20043;-72
2023/05/24 07:35:16;;;;;;;44.08;10.13;;;10.30;99.90;;;;;;5060234;28;20028;-72
2023/05/24 07:37:42;;;;;;;50.88;9.00;;;10.40;99.90;;;;;;5061092;28;20111;-72
2023/05/24 07:40:11;;;;;;;46.85;8.95;;;10.50;99.90;;;;;;5060933;28;20037;-74
2023/05/24 07:42:37;;;;;;;52.30;8.68;;;10.50;99.90;;;;;;5060683;28;20017;-73
2023/05/24 07:45:09;;;;;;;46.47;8.73;;;10.60;99.90;;;;;;5061231;28;20489;-71
2023/05/24 07:47:36;;;;;;;48.63;9.60;;;10.60;99.90;;;;;;5060172;28;20021;-74
2023/05/24 07:50:02;;;;;;;53.50;10.27;;;10.70;99.90;;;;;;5059319;28;20087;-73
2023/05/24 07:52:28;;;;;;;54.17;10.20;;;10.80;99.90;;;;;;5060642;28;20033;-73
2023/05/24 07:54:54;;;;;;;50.60;9.63;;;10.80;99.90;;;;;;5059988;28;20036;-72
2023/05/24 07:57:19;;;;;;;52.92;10.30;;;10.80;99.90;;;;;;5056758;28;20040;-72
2023/05/24 07:59:45;;;;;;;51.78;9.43;;;10.80;99.90;;;;;;5059270;28;20027;-72
2023/05/24 08:02:14;;;;;;;56.97;9.40;;;10.80;99.90;;;;;;5058700;28;20048;-71
2023/05/24 08:04:40;;;;;;;59.60;10.70;;;10.80;99.90;;;;;;5060345;28;20104;-71
2023/05/24 08:07:06;;;;;;;47.22;11.38;;;10.80;99.90;;;;;;5061156;28;20065;-73
2023/05/24 08:09:37;;;;;;;49.08;9.43;;;10.80;99.90;;;;;;5059652;28;20033;-72
2023/05/24 08:12:06;;;;;;;43.00;9.75;;;10.90;99.90;;;;;;5057305;28;20087;-71
2023/05/24 08:14:32;;;;;;;47.80;9.05;;;10.80;99.90;;;;;;5056835;28;20025;-72
2023/05/24 08:17:01;;;;;;;43.33;9.30;;;10.80;99.90;;;;;;5058600;28;20043;-72
2023/05/24 08:19:27;;;;;;;53.28;9.35;;;10.80;99.90;;;;;;5064465;28;20025;-71
2023/05/24 08:21:56;;;;;;;51.75;9.70;;;10.90;99.90;;;;;;5062390;28;20026;-72
2023/05/24 08:24:21;;;;;;;50.03;9.68;;;10.90;99.90;;;;;;5063991;28;20017;-70
2023/05/24 08:26:48;;;;;;;47.53;9.32;;;10.90;99.90;;;;;;5062628;28;20035;-72
2023/05/24 08:29:16;;;;;;;56.88;10.13;;;10.90;99.90;;;;;;5062260;28;20025;-72
2023/05/24 08:31:41;;;;;;;42.60;9.23;;;10.90;99.90;;;;;;5063919;28;20100;-72
2023/05/24 08:34:07;;;;;;;48.58;10.10;;;10.80;99.90;;;;;;5063365;28;20044;-71
2023/05/24 08:36:33;;;;;;;53.50;10.18;;;10.80;99.90;;;;;;5063380;28;20032;-72
2023/05/24 08:38:59;;;;;;;52.75;10.45;;;10.80;99.90;;;;;;5063016;28;20575;-73
2023/05/24 08:41:26;;;;;;;57.10;11.10;;;10.80;99.90;;;;;;5061092;28;20025;-72
2023/05/24 08:43:54;;;;;;;53.63;10.05;;;10.80;99.90;;;;;;5063981;28;20033;-72
2023/05/24 08:46:20;;;;;;;42.13;10.20;;;10.90;99.90;;;;;;5061104;28;20025;-72
2023/05/24 08:48:46;;;;;;;47.22;10.10;;;10.90;99.90;;;;;;5063655;28;20025;-73
2023/05/24 08:51:16;;;;;;;45.03;10.02;;;11.00;99.90;;;;;;5061149;28;20048;-72
2023/05/24 08:53:47;;;;;;;41.33;10.95;;;11.00;99.90;;;;;;5062212;28;20112;-72
2023/05/24 08:56:16;;;;;;;43.15;9.93;;;11.10;99.90;;;;;;5061808;28;20021;-73
2023/05/24 08:58:42;;;;;;;44.90;9.75;;;11.20;99.90;;;;;;5063000;28;20018;-72
2023/05/24 09:01:10;;;;;;;51.88;9.70;;;11.20;99.90;;;;;;5061925;28;20564;-73
2023/05/24 09:03:36;;;;;;;51.30;10.07;;;11.30;99.90;;;;;;5063133;28;20034;-72
2023/05/24 09:06:02;;;;;;;45.63;9.63;;;11.40;99.90;;;;;;5060906;28;20037;-70
2023/05/24 09:08:29;;;;;;;35.80;8.88;;;11.50;99.90;;;;;;5062659;28;20028;-72
2023/05/24 09:10:55;;;;;;;44.60;9.82;;;11.70;99.90;;;;;;5059674;28;20033;-71
2023/05/24 09:13:23;;;;;;;43.10;9.00;;;11.70;99.90;;;;;;5061019;28;20036;-72
2023/05/24 09:15:49;;;;;;;50.80;10.38;;;11.80;99.90;;;;;;5063449;28;20025;-72
2023/05/24 09:18:14;;;;;;;50.83;9.45;;;11.90;99.90;;;;;;5062164;28;20056;-74
2023/05/24 09:20:40;;;;;;;38.40;8.90;;;11.90;99.90;;;;;;5062056;28;20025;-72
2023/05/24 09:23:07;;;;;;;52.97;9.77;;;12.00;99.90;;;;;;5062177;28;20063;-74
2023/05/24 09:25:33;;;;;;;39.72;8.50;;;12.10;99.90;;;;;;5059630;28;20021;-76
2023/05/24 09:28:05;;;;;;;48.97;9.77;;;12.20;99.90;;;;;;5058300;28;20035;-71
2023/05/24 09:30:31;;;;;;;43.75;9.20;;;12.30;99.90;;;;;;5058160;28;20476;-73
2023/05/24 09:32:58;;;;;;;45.15;8.23;;;12.40;99.90;;;;;;5060343;28;20053;-71
2023/05/24 09:35:27;;;;;;;37.97;8.32;;;12.50;99.90;;;;;;5062304;28;20033;-72
2023/05/24 09:37:56;;;;;;;40.25;8.88;;;12.50;99.90;;;;;;5061488;28;20083;-73
2023/05/24 09:40:22;;;;;;;31.30;8.13;;;12.60;99.90;;;;;;5060062;28;20025;-73
2023/05/24 09:42:50;;;;;;;35.65;8.65;;;12.50;99.90;;;;;;5059838;28;20025;-73
2023/05/24 09:45:16;;;;;;;36.88;8.70;;;12.50;99.90;;;;;;5057301;28;20092;-71
2023/05/24 09:47:43;;;;;;;34.95;8.13;;;12.40;99.90;;;;;;5061335;28;20420;-72
2023/05/24 09:50:15;;;;;;;38.55;8.52;;;12.40;99.90;;;;;;5061114;28;20083;-72
2023/05/24 09:52:41;;;;;;;34.28;8.57;;;12.40;99.90;;;;;;5061107;28;20041;-71
2023/05/24 09:55:14;;;;;;;30.35;7.22;;;12.50;99.90;;;;;;5061705;28;20029;-72
2023/05/24 09:57:40;;;;;;;34.65;8.55;;;12.60;99.90;;;;;;5060761;28;20072;-72
2023/05/24 10:00:16;;;;;;;36.50;8.52;;;12.60;99.90;;;;;;5061655;28;20078;-70
2023/05/24 10:02:45;;;;;;;31.65;7.55;;;12.60;99.90;;;;;;5059248;28;20021;-71
2023/05/24 10:05:12;;;;;;;34.33;7.65;;;12.60;99.90;;;;;;5062476;28;20072;-73
2023/05/24 10:07:39;;;;;;;39.35;8.50;;;12.60;99.90;;;;;;5059061;28;20032;-73
2023/05/24 10:10:06;;;;;;;32.60;8.10;;;12.70;99.90;;;;;;5061962;28;20088;-71
2023/05/24 10:12:34;;;;;;;34.50;8.50;;;12.80;99.90;;;;;;5060260;28;20040;-71
2023/05/24 10:15:01;;;;;;;30.20;8.02;;;12.80;99.90;;;;;;5059148;28;20162;-71
2023/05/24 10:17:27;;;;;;;33.55;8.27;;;12.80;99.90;;;;;;5059057;28;20056;-72
2023/05/24 10:19:53;;;;;;;33.53;8.60;;;12.90;99.90;;;;;;5060591;28;20025;-72
2023/05/24 10:22:22;;;;;;;34.25;8.55;;;12.90;99.90;;;;;;5060263;28;20089;-72
2023/05/24 10:24:52;;;;;;;38.47;8.25;;;12.80;99.90;;;;;;5058602;28;20052;-72
2023/05/24 10:27:25;;;;;;;29.17;8.35;;;12.80;99.90;;;;;;5059723;28;20144;-72
2023/05/24 10:30:03;;;;;;;39.25;9.85;;;12.80;99.90;;;;;;5060857;28;20021;-73
2023/05/24 10:32:32;;;;;;;28.83;8.25;;;12.70;99.90;;;;;;5060022;28;20059;-71
2023/05/24 10:34:59;;;;;;;37.35;9.35;;;12.80;99.90;;;;;;5059743;28;20025;-72
2023/05/24 10:37:25;;;;;;;43.38;9.00;;;12.90;99.90;;;;;;5062035;28;20052;-72
2023/05/24 10:39:51;;;;;;;36.28;9.52;;;12.80;99.90;;;;;;5057770;28;20028;-73
2023/05/24 10:42:17;;;;;;;33.60;7.90;;;12.80;99.90;;;;;;5057061;28;20104;-72
2023/05/24 10:44:45;;;;;;;39.38;8.90;;;12.70;99.90;;;;;;5052976;28;20516;-76
2023/05/24 10:47:13;;;;;;;28.75;8.75;;;12.80;99.90;;;;;;5058149;28;20084;-73
2023/05/24 10:50:15;;;;;;;32.22;8.07;;;12.70;99.90;;;;;;5057590;28;20398;-73
2023/05/24 10:52:41;;;;;;;26.95;7.90;;;12.80;99.90;;;;;;5058134;28;20024;-74
2023/05/24 10:55:08;;;;;;;34.30;8.57;;;12.70;99.90;;;;;;5062168;28;20021;-71
2023/05/24 10:57:34;;;;;;;34.65;8.50;;;12.60;99.90;;;;;;5061927;28;20079;-71
2023/05/24 11:00:26;;;;;;;37.53;9.38;;;12.60;99.90;;;;;;5059694;28;20021;-71
2023/05/24 11:03:03;;;;;;;37.33;8.93;;;12.60;99.90;;;;;;5059905;28;20072;-73
2023/05/24 11:05:48;;;;;;;41.47;8.75;;;12.60;99.90;;;;;;5060144;28;20070;-72
2023/05/24 11:08:27;;;;;;;37.58;9.82;;;12.60;99.90;;;;;;5058927;28;20103;-71
2023/05/24 11:11:25;;;;;;;39.03;9.18;;;12.60;99.90;;;;;;5059409;28;20025;-73
2023/05/24 11:13:56;;;;;;;37.75;9.15;;;12.50;99.90;;;;;;5061363;28;20048;-71
2023/05/24 11:16:38;;;;;;;42.58;10.25;;;12.50;99.90;;;;;;5058859;28;20025;-73
2023/05/24 11:19:17;;;;;;;42.80;9.35;;;12.50;99.90;;;;;;5059021;28;20017;-73
2023/05/24 11:21:44;;;;;;;46.15;10.02;;;12.50;99.90;;;;;;5059824;28;20100;-73
2023/05/24 11:24:10;;;;;;;37.58;9.68;;;12.60;99.90;;;;;;5058080;28;20036;-72
2023/05/24 11:26:36;;;;;;;35.63;9.57;;;12.60;99.90;;;;;;5059724;28;20040;-70
2023/05/24 11:29:04;;;;;;;39.90;8.70;;;12.60;99.90;;;;;;5060205;28;20406;-72
2023/05/24 11:31:30;;;;;;;37.90;8.70;;;12.70;99.90;;;;;;5061220;28;20017;-73
2023/05/24 11:33:55;;;;;;;43.92;9.07;;;12.70;99.90;;;;;;5060271;28;20092;-72
2023/05/24 11:36:21;;;;;;;42.92;9.90;;;12.70;99.90;;;;;;5061722;28;20056;-71
2023/05/24 11:38:48;;;;;;;41.50;9.23;;;12.80;99.90;;;;;;5059304;28;20021;-73
2023/05/24 11:41:14;;;;;;;30.27;7.85;;;12.90;99.90;;;;;;5061331;28;20025;-70
2023/05/24 11:43:40;;;;;;;34.90;8.35;;;13.00;99.90;;;;;;5061622;28;20033;-70
2023/05/24 11:46:06;;;;;;;35.33;8.20;;;13.00;99.90;;;;;;5060947;28;20029;-72
2023/05/24 11:48:35;;;;;;;36.63;8.75;;;13.00;99.90;;;;;;5059648;28;20096;-71
2023/05/24 11:51:04;;;;;;;27.88;8.02;;;12.90;99.90;;;;;;5063201;28;20563;-71
2023/05/24 11:53:30;;;;;;;32.22;8.25;;;12.90;99.90;;;;;;5065214;28;20028;-73
2023/05/24 11:55:56;;;;;;;34.28;7.72;;;12.90;99.90;;;;;;5065634;28;20025;-72
2023/05/24 11:58:23;;;;;;;30.48;8.48;;;13.00;99.90;;;;;;5064280;28;20071;-74
2023/05/24 12:00:49;;;;;;;29.88;8.40;;;12.90;99.90;;;;;;5064456;28;20090;-72
2023/05/24 12:03:16;;;;;;;32.20;7.53;;;12.80;99.90;;;;;;5065189;28;20083;-72
2023/05/24 12:05:42;;;;;;;30.65;8.18;;;12.90;99.90;;;;;;5065306;28;20016;-71
2023/05/24 12:08:11;;;;;;;30.80;8.70;;;12.80;99.90;;;;;;5064978;28;20017;-71
2023/05/24 12:10:38;;;;;;;41.83;7.93;;;12.70;99.90;;;;;;5063936;28;20060;-73
2023/05/24 12:13:08;;;;;;;27.60;7.95;;;12.70;99.90;;;;;;5062699;28;20032;-73
2023/05/24 12:15:34;;;;;;;31.98;7.95;;;12.80;99.90;;;;;;5064741;28;20028;-73
2023/05/24 12:18:00;;;;;;;28.38;7.63;;;12.80;99.90;;;;;;5063109;28;20033;-74
2023/05/24 12:20:28;;;;;;;33.42;7.95;;;12.80;99.90;;;;;;5063153;28;20029;-71
2023/05/24 12:22:55;;;;;;;32.65;8.63;;;12.80;99.90;;;;;;5063197;28;20493;-71
2023/05/24 12:25:22;;;;;;;32.15;7.45;;;12.90;99.90;;;;;;5064671;28;20032;-72
2023/05/24 12:27:55;;;;;;;42.97;8.48;;;13.00;99.90;;;;;;5064666;28;20029;-72
2023/05/24 12:30:22;;;;;;;33.72;8.63;;;13.10;99.90;;;;;;5064592;28;20063;-72
2023/05/24 12:32:48;;;;;;;30.90;8.63;;;13.20;99.90;;;;;;5064038;28;20021;-70
2023/05/24 12:35:17;;;;;;;30.38;7.70;;;13.30;99.90;;;;;;5063755;28;20021;-73
2023/05/24 12:37:43;;;;;;;33.33;7.82;;;13.40;99.90;;;;;;5064197;28;20021;-70
2023/05/24 12:40:19;;;;;;;34.55;7.82;;;13.40;99.90;;;;;;5064778;28;20021;-73
2023/05/24 12:42:56;;;;;;;24.88;7.43;;;13.50;99.90;;;;;;5062769;28;20029;-71